createdAt,value
2024-03-03T00:00:23.121Z,1133.00
2024-03-03T00:01:23.156Z,1133.00
2024-03-03T00:02:23.242Z,1134.00
2024-03-03T00:03:23.130Z,1131.00
2024-03-03T00:04:23.208Z,1127.00
2024-03-03T00:05:23.141Z,1120.00
2024-03-03T00:06:23.152Z,1125.00
2024-03-03T00:07:23.210Z,1124.00
2024-03-03T00:08:23.167Z,1120.00
2024-03-03T00:09:23.170Z,1120.00
2024-03-03T00:10:23.190Z,1121.00
2024-03-03T00:11:23.194Z,1124.00
2024-03-03T00:12:23.166Z,1121.00
2024-03-03T00:13:23.212Z,1124.00
2024-03-03T00:14:23.165Z,1126.00
2024-03-03T00:15:23.177Z,1127.00
2024-03-03T00:16:23.219Z,1124.00
2024-03-03T00:17:23.184Z,1127.00
2024-03-03T00:18:23.190Z,1133.00
2024-03-03T00:19:23.228Z,1136.00
2024-03-03T00:20:23.190Z,1142.00
2024-03-03T00:21:23.196Z,1137.00
2024-03-03T00:22:23.224Z,1134.00
2024-03-03T00:23:23.218Z,1127.00
2024-03-03T00:24:23.209Z,1128.00
2024-03-03T00:25:23.257Z,1132.00
2024-03-03T00:26:23.238Z,1141.00
2024-03-03T00:27:23.248Z,1141.00
2024-03-03T00:28:23.323Z,1136.00
2024-03-03T00:29:23.236Z,1132.00
2024-03-03T00:30:23.248Z,1130.00
2024-03-03T00:31:23.265Z,1131.00
2024-03-03T00:32:23.245Z,1131.00
2024-03-03T00:33:23.315Z,1131.00
2024-03-03T00:34:23.281Z,1132.00
2024-03-03T00:35:23.256Z,1130.00
2024-03-03T00:36:23.335Z,1131.00
2024-03-03T00:37:23.303Z,1132.00
2024-03-03T00:38:23.299Z,1134.00
2024-03-03T00:39:23.310Z,1135.00
2024-03-03T00:40:23.373Z,1138.00
2024-03-03T00:41:23.315Z,1136.00
2024-03-03T00:42:23.311Z,1134.00
2024-03-03T00:43:23.329Z,1133.00
2024-03-03T00:44:23.316Z,1135.00
2024-03-03T00:45:23.315Z,1139.00
2024-03-03T00:46:23.338Z,1139.00
2024-03-03T00:47:23.322Z,1139.00
2024-03-03T00:48:23.334Z,1136.00
2024-03-03T00:49:23.368Z,1137.00
2024-03-03T00:50:23.359Z,1138.00
2024-03-03T00:51:23.374Z,1139.00
2024-03-03T00:52:23.399Z,1138.00
2024-03-03T00:53:23.390Z,1134.00
2024-03-03T00:54:23.397Z,1132.00
2024-03-03T00:55:23.533Z,1129.00
2024-03-03T00:56:23.420Z,1125.00
2024-03-03T00:57:23.413Z,1125.00
2024-03-03T00:58:23.483Z,1121.00
2024-03-03T00:59:23.419Z,1121.00
2024-03-03T01:00:23.433Z,1114.00
2024-03-03T01:01:23.451Z,1098.00
2024-03-03T01:02:23.472Z,1093.00
2024-03-03T01:03:23.456Z,1098.00
2024-03-03T01:04:23.502Z,1099.00
2024-03-03T01:05:23.471Z,1100.00
2024-03-03T01:06:23.472Z,1102.00
2024-03-03T01:07:23.547Z,1103.00
2024-03-03T01:08:23.482Z,1105.00
2024-03-03T01:09:23.489Z,1108.00
2024-03-03T01:10:23.529Z,1106.00
2024-03-03T01:11:23.546Z,1106.00
2024-03-03T01:12:23.502Z,1107.00
2024-03-03T01:13:23.547Z,1105.00
2024-03-03T01:14:23.497Z,1103.00
2024-03-03T01:15:23.533Z,1097.00
2024-03-03T01:16:23.552Z,1093.00
2024-03-03T01:17:23.517Z,1089.00
2024-03-03T01:18:23.493Z,1085.00
2024-03-03T01:19:23.653Z,1076.00
2024-03-03T01:20:23.497Z,1064.00
2024-03-03T01:21:23.534Z,1063.00
2024-03-03T01:22:23.532Z,1057.00
2024-03-03T01:23:23.513Z,1056.00
2024-03-03T01:24:23.521Z,1051.00
2024-03-03T01:25:23.565Z,1047.00
2024-03-03T01:26:23.540Z,1045.00
2024-03-03T01:27:23.560Z,1041.00
2024-03-03T01:28:23.705Z,1040.00
2024-03-03T01:29:23.564Z,1042.00
2024-03-03T01:30:23.571Z,1043.00
2024-03-03T01:31:23.569Z,1044.00
2024-03-03T01:32:23.624Z,1042.00
2024-03-03T01:33:23.595Z,1039.00
2024-03-03T01:34:23.642Z,1038.00
2024-03-03T01:35:23.577Z,1036.00
2024-03-03T01:36:23.584Z,1032.00
2024-03-03T01:37:23.614Z,1035.00
2024-03-03T01:38:23.610Z,1038.00
2024-03-03T01:39:23.607Z,1039.00
2024-03-03T01:40:23.733Z,1037.00
2024-03-03T01:41:23.632Z,1038.00
2024-03-03T01:42:23.625Z,1039.00
2024-03-03T01:43:23.707Z,1036.00
2024-03-03T01:44:23.645Z,1036.00
2024-03-03T01:45:23.648Z,1035.00
2024-03-03T01:46:23.698Z,1036.00
2024-03-03T01:47:23.767Z,1036.00
2024-03-03T01:48:23.723Z,1033.00
2024-03-03T01:49:23.791Z,1038.00
2024-03-03T01:50:23.802Z,1038.00
2024-03-03T01:51:23.821Z,1039.00
2024-03-03T01:52:23.918Z,1035.00
2024-03-03T01:53:23.907Z,1033.00
2024-03-03T01:54:23.912Z,1036.00
2024-03-03T01:55:24.104Z,1035.00
2024-03-03T01:56:23.972Z,1032.00
2024-03-03T01:57:24.005Z,1026.00
2024-03-03T01:58:24.083Z,1024.00
2024-03-03T01:59:24.046Z,1022.00
2024-03-03T02:00:24.083Z,1023.00
2024-03-03T02:01:24.145Z,1018.00
2024-03-03T02:02:24.170Z,1017.00
2024-03-03T02:03:24.173Z,1015.00
2024-03-03T02:04:24.254Z,1015.00
2024-03-03T02:05:24.230Z,1010.00
2024-03-03T02:06:24.314Z,999.00
2024-03-03T02:07:24.356Z,989.00
2024-03-03T02:08:24.368Z,985.00
2024-03-03T02:09:24.415Z,985.00
2024-03-03T02:10:24.442Z,988.00
2024-03-03T02:11:24.554Z,988.00
2024-03-03T02:12:24.493Z,986.00
2024-03-03T02:13:24.552Z,989.00
2024-03-03T02:14:24.549Z,987.00
2024-03-03T02:15:24.586Z,988.00
2024-03-03T02:16:24.626Z,989.00
2024-03-03T02:17:24.603Z,989.00
2024-03-03T02:18:24.592Z,987.00
2024-03-03T02:19:24.758Z,986.00
2024-03-03T02:20:24.599Z,977.00
2024-03-03T02:21:24.610Z,976.00
2024-03-03T02:22:24.660Z,976.00
2024-03-03T02:23:24.614Z,976.00
2024-03-03T02:24:24.615Z,977.00
2024-03-03T02:25:24.677Z,974.00
2024-03-03T02:26:24.618Z,974.00
2024-03-03T02:27:24.629Z,973.00
2024-03-03T02:28:24.667Z,972.00
2024-03-03T02:29:24.629Z,971.00
2024-03-03T02:30:24.618Z,972.00
2024-03-03T02:31:24.672Z,973.00
2024-03-03T02:32:24.649Z,973.00
2024-03-03T02:33:24.638Z,971.00
2024-03-03T02:34:24.710Z,970.00
2024-03-03T02:35:24.624Z,970.00
2024-03-03T02:36:24.650Z,968.00
2024-03-03T02:37:24.737Z,969.00
2024-03-03T02:38:24.718Z,970.00
2024-03-03T02:39:24.759Z,972.00
2024-03-03T02:40:24.826Z,969.00
2024-03-03T02:41:24.823Z,970.00
2024-03-03T02:42:24.855Z,969.00
2024-03-03T02:43:24.943Z,966.00
2024-03-03T02:44:24.886Z,962.00
2024-03-03T02:45:24.904Z,960.00
2024-03-03T02:46:24.968Z,959.00
2024-03-03T02:47:24.905Z,960.00
2024-03-03T02:48:24.905Z,959.00
2024-03-03T02:49:24.957Z,959.00
2024-03-03T02:50:24.920Z,958.00
2024-03-03T02:51:24.909Z,957.00
2024-03-03T02:52:24.942Z,956.00
2024-03-03T02:53:24.915Z,958.00
2024-03-03T02:54:24.915Z,958.00
2024-03-03T02:55:25.058Z,958.00
2024-03-03T02:56:24.916Z,957.00
2024-03-03T02:57:24.914Z,951.00
2024-03-03T02:58:25.008Z,951.00
2024-03-03T02:59:24.916Z,948.00
2024-03-03T03:00:24.927Z,949.00
2024-03-03T03:01:24.966Z,949.00
2024-03-03T03:02:24.939Z,948.00
2024-03-03T03:03:24.942Z,945.00
2024-03-03T03:04:25.010Z,945.00
2024-03-03T03:05:24.958Z,942.00
2024-03-03T03:06:24.959Z,944.00
2024-03-03T03:07:25.031Z,945.00
2024-03-03T03:08:24.978Z,943.00
2024-03-03T03:09:24.984Z,943.00
2024-03-03T03:10:25.008Z,941.00
2024-03-03T03:11:25.027Z,940.00
2024-03-03T03:12:25.003Z,939.00
2024-03-03T03:13:25.073Z,936.00
2024-03-03T03:14:25.016Z,931.00
2024-03-03T03:15:25.032Z,931.00
2024-03-03T03:16:25.079Z,931.00
2024-03-03T03:17:25.084Z,930.00
2024-03-03T03:18:25.062Z,928.00
2024-03-03T03:19:25.112Z,924.00
2024-03-03T03:20:25.054Z,922.00
2024-03-03T03:21:25.063Z,924.00
2024-03-03T03:22:25.119Z,927.00
2024-03-03T03:23:25.089Z,930.00
2024-03-03T03:24:25.096Z,933.00
2024-03-03T03:25:25.194Z,930.00
2024-03-03T03:26:25.107Z,930.00
2024-03-03T03:27:25.124Z,927.00
2024-03-03T03:28:25.168Z,925.00
2024-03-03T03:29:25.133Z,927.00
2024-03-03T03:30:25.142Z,924.00
2024-03-03T03:31:25.205Z,923.00
2024-03-03T03:32:25.214Z,921.00
2024-03-03T03:33:25.178Z,920.00
2024-03-03T03:34:25.219Z,919.00
2024-03-03T03:35:25.199Z,917.00
2024-03-03T03:36:25.198Z,913.00
2024-03-03T03:37:25.249Z,909.00
2024-03-03T03:38:25.224Z,903.00
2024-03-03T03:39:25.217Z,900.00
2024-03-03T03:40:25.373Z,896.00
2024-03-03T03:41:25.257Z,896.00
2024-03-03T03:42:25.251Z,897.00
2024-03-03T03:43:25.283Z,895.00
2024-03-03T03:44:25.251Z,891.00
2024-03-03T03:45:25.260Z,892.00
2024-03-03T03:46:25.302Z,891.00
2024-03-03T03:47:25.272Z,896.00
2024-03-03T03:48:25.274Z,893.00
2024-03-03T03:49:25.303Z,895.00
2024-03-03T03:50:25.280Z,893.00
2024-03-03T03:51:25.295Z,890.00
2024-03-03T03:52:25.329Z,891.00
2024-03-03T03:53:25.310Z,891.00
2024-03-03T03:54:25.313Z,887.00
2024-03-03T03:55:25.346Z,884.00
2024-03-03T03:56:25.327Z,880.00
2024-03-03T03:57:25.327Z,878.00
2024-03-03T03:58:25.383Z,878.00
2024-03-03T03:59:25.325Z,881.00
2024-03-03T04:00:25.340Z,882.00
2024-03-03T04:01:25.417Z,880.00
2024-03-03T04:02:25.337Z,876.00
2024-03-03T04:03:25.344Z,877.00
2024-03-03T04:04:25.421Z,877.00
2024-03-03T04:05:25.354Z,872.00
2024-03-03T04:06:25.355Z,867.00
2024-03-03T04:07:25.386Z,870.00
2024-03-03T04:08:25.384Z,868.00
2024-03-03T04:09:25.374Z,870.00
2024-03-03T04:10:25.451Z,872.00
2024-03-03T04:11:25.492Z,873.00
2024-03-03T04:12:25.402Z,868.00
2024-03-03T04:13:25.444Z,864.00
2024-03-03T04:14:25.438Z,863.00
2024-03-03T04:15:25.448Z,862.00
2024-03-03T04:16:25.547Z,858.00
2024-03-03T04:17:25.588Z,856.00
2024-03-03T04:18:27.471Z,855.00
2024-03-03T04:19:25.588Z,853.00
2024-03-03T04:20:25.564Z,852.00
2024-03-03T04:21:25.568Z,849.00
2024-03-03T04:22:25.597Z,850.00
2024-03-03T04:23:25.575Z,852.00
2024-03-03T04:24:25.599Z,854.00
2024-03-03T04:25:25.622Z,856.00
2024-03-03T04:26:32.819Z,859.00
2024-03-03T04:27:32.810Z,862.00
2024-03-03T04:28:32.799Z,859.00
2024-03-03T04:29:32.813Z,858.00
2024-03-03T04:30:32.800Z,857.00
2024-03-03T04:31:40.032Z,861.00
2024-03-03T04:32:40.101Z,852.00
2024-03-03T04:33:40.096Z,851.00
2024-03-03T04:34:40.037Z,853.00
2024-03-03T04:35:40.043Z,851.00
2024-03-03T04:36:40.081Z,851.00
2024-03-03T04:37:40.053Z,850.00
2024-03-03T04:38:40.069Z,847.00
2024-03-03T04:39:40.098Z,847.00
2024-03-03T04:40:40.062Z,846.00
2024-03-03T04:41:40.069Z,843.00
2024-03-03T04:42:40.170Z,839.00
2024-03-03T04:43:40.061Z,837.00
2024-03-03T04:44:40.060Z,833.00
2024-03-03T04:45:40.102Z,835.00
2024-03-03T04:46:40.057Z,835.00
2024-03-03T04:47:40.088Z,835.00
2024-03-03T04:48:40.139Z,832.00
2024-03-03T04:49:40.075Z,828.00
2024-03-03T04:50:40.070Z,830.00
2024-03-03T04:51:40.246Z,833.00
2024-03-03T04:52:40.068Z,832.00
2024-03-03T04:53:40.077Z,830.00
2024-03-03T04:54:40.107Z,828.00
2024-03-03T04:55:40.087Z,828.00
2024-03-03T04:56:40.079Z,825.00
2024-03-03T04:57:40.099Z,823.00
2024-03-03T04:58:40.091Z,822.00
2024-03-03T04:59:40.087Z,821.00
2024-03-03T05:00:40.137Z,818.00
2024-03-03T05:01:40.133Z,818.00
2024-03-03T05:02:40.081Z,817.00
2024-03-03T05:03:40.120Z,818.00
2024-03-03T05:04:40.082Z,817.00
2024-03-03T05:05:40.088Z,813.00
2024-03-03T05:06:40.156Z,813.00
2024-03-03T05:07:40.082Z,814.00
2024-03-03T05:08:40.073Z,814.00
2024-03-03T05:09:40.099Z,812.00
2024-03-03T05:10:40.141Z,811.00
2024-03-03T05:11:40.102Z,807.00
2024-03-03T05:12:40.149Z,804.00
2024-03-03T05:13:40.129Z,804.00
2024-03-03T05:14:40.134Z,800.00
2024-03-03T05:15:40.163Z,797.00
2024-03-03T05:16:40.117Z,796.00
2024-03-03T05:17:40.213Z,796.00
2024-03-03T05:18:40.162Z,797.00
2024-03-03T05:19:40.128Z,798.00
2024-03-03T05:20:40.124Z,796.00
2024-03-03T05:21:40.267Z,793.00
2024-03-03T05:22:40.239Z,794.00
2024-03-03T05:23:40.132Z,795.00
2024-03-03T05:24:40.162Z,793.00
2024-03-03T05:25:40.161Z,792.00
2024-03-03T05:26:40.143Z,790.00
2024-03-03T05:27:40.214Z,789.00
2024-03-03T05:28:40.162Z,787.00
2024-03-03T05:29:40.153Z,785.00
2024-03-03T05:30:40.192Z,785.00
2024-03-03T05:31:40.166Z,785.00
2024-03-03T05:32:40.217Z,784.00
2024-03-03T05:33:40.204Z,780.00
2024-03-03T05:34:40.170Z,780.00
2024-03-03T05:35:40.183Z,779.00
2024-03-03T05:36:40.225Z,777.00
2024-03-03T05:37:40.188Z,773.00
2024-03-03T05:38:40.190Z,775.00
2024-03-03T05:39:40.201Z,774.00
2024-03-03T05:40:40.195Z,774.00
2024-03-03T05:41:40.258Z,772.00
2024-03-03T05:42:40.261Z,774.00
2024-03-03T05:43:40.246Z,771.00
2024-03-03T05:44:40.245Z,769.00
2024-03-03T05:45:40.298Z,764.00
2024-03-03T05:46:40.258Z,759.00
2024-03-03T05:47:40.296Z,759.00
2024-03-03T05:48:40.359Z,758.00
2024-03-03T05:49:40.285Z,756.00
2024-03-03T05:50:40.287Z,757.00
2024-03-03T05:51:40.317Z,757.00
2024-03-03T05:52:40.327Z,757.00
2024-03-03T05:53:40.329Z,759.00
2024-03-03T05:54:40.380Z,758.00
2024-03-03T05:55:40.324Z,758.00
2024-03-03T05:56:40.334Z,758.00
2024-03-03T05:57:40.360Z,758.00
2024-03-03T05:58:40.345Z,758.00
2024-03-03T05:59:40.347Z,758.00
2024-03-03T06:00:40.402Z,757.00
2024-03-03T06:01:40.398Z,760.00
2024-03-03T06:02:40.352Z,758.00
2024-03-03T06:03:40.365Z,757.00
2024-03-03T06:04:40.401Z,754.00
2024-03-03T06:05:40.366Z,754.00
2024-03-03T06:06:40.362Z,755.00
2024-03-03T06:07:40.353Z,754.00
2024-03-03T06:08:40.356Z,751.00
2024-03-03T06:09:40.376Z,754.00
2024-03-03T06:10:40.374Z,755.00
2024-03-03T06:11:40.366Z,757.00
2024-03-03T06:12:40.392Z,757.00
2024-03-03T06:13:40.367Z,755.00
2024-03-03T06:14:40.366Z,754.00
2024-03-03T06:15:40.397Z,750.00
2024-03-03T06:16:40.372Z,749.00
2024-03-03T06:17:40.415Z,750.00
2024-03-03T06:18:40.405Z,749.00
2024-03-03T06:19:40.367Z,748.00
2024-03-03T06:20:40.364Z,745.00
2024-03-03T06:21:40.391Z,746.00
2024-03-03T06:22:40.378Z,742.00
2024-03-03T06:23:40.375Z,744.00
2024-03-03T06:24:40.381Z,744.00
2024-03-03T06:25:40.368Z,744.00
2024-03-03T06:26:40.369Z,744.00
2024-03-03T06:27:40.482Z,743.00
2024-03-03T06:28:40.365Z,741.00
2024-03-03T06:29:40.363Z,738.00
2024-03-03T06:30:40.442Z,738.00
2024-03-03T06:31:40.360Z,737.00
2024-03-03T06:32:40.377Z,733.00
2024-03-03T06:33:40.378Z,731.00
2024-03-03T06:34:40.377Z,734.00
2024-03-03T06:35:40.368Z,734.00
2024-03-03T06:36:40.505Z,733.00
2024-03-03T06:37:40.382Z,734.00
2024-03-03T06:38:40.360Z,732.00
2024-03-03T06:39:40.415Z,728.00
2024-03-03T06:40:40.352Z,727.00
2024-03-03T06:41:40.373Z,727.00
2024-03-03T06:42:40.384Z,728.00
2024-03-03T06:43:40.354Z,726.00
2024-03-03T06:44:40.566Z,725.00
2024-03-03T06:45:40.380Z,724.00
2024-03-03T06:46:40.366Z,725.00
2024-03-03T06:47:40.413Z,724.00
2024-03-03T06:48:40.503Z,724.00
2024-03-03T06:49:40.414Z,725.00
2024-03-03T06:50:40.393Z,722.00
2024-03-03T06:51:40.600Z,722.00
2024-03-03T06:52:40.456Z,723.00
2024-03-03T06:53:40.503Z,724.00
2024-03-03T06:54:40.538Z,722.00
2024-03-03T06:55:40.509Z,721.00
2024-03-03T06:56:40.522Z,720.00
2024-03-03T06:57:40.648Z,722.00
2024-03-03T06:58:40.653Z,723.00
2024-03-03T06:59:40.593Z,721.00
2024-03-03T07:00:40.774Z,721.00
2024-03-03T07:01:40.685Z,719.00
2024-03-03T07:02:40.667Z,717.00
2024-03-03T07:03:40.769Z,716.00
2024-03-03T07:04:40.657Z,713.00
2024-03-03T07:05:40.655Z,711.00
2024-03-03T07:06:40.701Z,710.00
2024-03-03T07:07:40.652Z,711.00
2024-03-03T07:08:40.664Z,710.00
2024-03-03T07:09:40.897Z,710.00
2024-03-03T07:10:40.647Z,708.00
2024-03-03T07:11:40.651Z,709.00
2024-03-03T07:12:40.677Z,710.00
2024-03-03T07:13:40.668Z,713.00
2024-03-03T07:14:40.660Z,708.00
2024-03-03T07:15:40.726Z,704.00
2024-03-03T07:16:40.685Z,703.00
2024-03-03T07:17:40.771Z,704.00
2024-03-03T07:18:40.723Z,704.00
2024-03-03T07:19:40.704Z,702.00
2024-03-03T07:20:40.777Z,699.00
2024-03-03T07:21:40.743Z,701.00
2024-03-03T07:22:40.696Z,700.00
2024-03-03T07:23:40.726Z,700.00
2024-03-03T07:24:40.747Z,699.00
2024-03-03T07:25:40.698Z,695.00
2024-03-03T07:26:40.700Z,693.00
2024-03-03T07:27:40.755Z,691.00
2024-03-03T07:28:40.745Z,691.00
2024-03-03T07:29:40.738Z,690.00
2024-03-03T07:30:40.800Z,688.00
2024-03-03T07:31:40.777Z,688.00
2024-03-03T07:32:40.837Z,687.00
2024-03-03T07:33:40.849Z,687.00
2024-03-03T07:34:40.847Z,687.00
2024-03-03T07:35:40.893Z,687.00
2024-03-03T07:36:40.954Z,686.00
2024-03-03T07:37:41.026Z,684.00
2024-03-03T07:38:40.950Z,684.00
2024-03-03T07:39:41.059Z,682.00
2024-03-03T07:40:41.006Z,681.00
2024-03-03T07:41:41.030Z,681.00
2024-03-03T07:42:41.091Z,681.00
2024-03-03T07:43:41.076Z,681.00
2024-03-03T07:44:41.092Z,678.00
2024-03-03T07:45:41.137Z,680.00
2024-03-03T07:46:41.156Z,680.00
2024-03-03T07:47:41.203Z,678.00
2024-03-03T07:48:41.298Z,678.00
2024-03-03T07:49:41.306Z,679.00
2024-03-03T07:50:41.406Z,679.00
2024-03-03T07:51:41.341Z,678.00
2024-03-03T07:52:41.352Z,677.00
2024-03-03T07:53:41.339Z,678.00
2024-03-03T07:54:41.371Z,676.00
2024-03-03T07:55:41.361Z,675.00
2024-03-03T07:56:41.381Z,673.00
2024-03-03T07:57:41.440Z,673.00
2024-03-03T07:58:41.401Z,672.00
2024-03-03T07:59:41.427Z,671.00
2024-03-03T08:00:43.439Z,670.00
2024-03-03T08:01:41.574Z,670.00
2024-03-03T08:02:41.461Z,667.00
2024-03-03T08:03:41.624Z,666.00
2024-03-03T08:04:41.493Z,667.00
2024-03-03T08:05:41.458Z,667.00
2024-03-03T08:06:41.545Z,665.00
2024-03-03T08:07:41.454Z,664.00
2024-03-03T08:08:41.523Z,664.00
2024-03-03T08:09:41.503Z,665.00
2024-03-03T08:10:41.530Z,665.00
2024-03-03T08:11:41.529Z,665.00
2024-03-03T08:12:41.553Z,664.00
2024-03-03T08:13:41.490Z,662.00
2024-03-03T08:14:41.495Z,664.00
2024-03-03T08:15:41.549Z,663.00
2024-03-03T08:16:41.538Z,660.00
2024-03-03T08:17:41.591Z,659.00
2024-03-03T08:18:41.578Z,658.00
2024-03-03T08:19:41.566Z,658.00
2024-03-03T08:20:41.588Z,658.00
2024-03-03T08:21:41.610Z,658.00
2024-03-03T08:22:41.615Z,653.00
2024-03-03T08:23:41.631Z,654.00
2024-03-03T08:24:41.683Z,655.00
2024-03-03T08:25:41.646Z,656.00
2024-03-03T08:26:41.680Z,652.00
2024-03-03T08:27:41.683Z,650.00
2024-03-03T08:28:41.684Z,647.00
2024-03-03T08:29:41.704Z,646.00
2024-03-03T08:30:41.745Z,646.00
2024-03-03T08:31:41.744Z,644.00
2024-03-03T08:32:41.784Z,646.00
2024-03-03T08:33:41.773Z,644.00
2024-03-03T08:34:41.771Z,644.00
2024-03-03T08:35:41.797Z,643.00
2024-03-03T08:36:41.828Z,642.00
2024-03-03T08:37:41.846Z,643.00
2024-03-03T08:38:41.823Z,642.00
2024-03-03T08:39:41.850Z,642.00
2024-03-03T08:40:41.853Z,640.00
2024-03-03T08:41:41.872Z,640.00
2024-03-03T08:42:41.895Z,641.00
2024-03-03T08:43:41.897Z,642.00
2024-03-03T08:44:41.912Z,641.00
2024-03-03T08:45:41.969Z,639.00
2024-03-03T08:46:41.929Z,637.00
2024-03-03T08:47:41.978Z,635.00
2024-03-03T08:48:41.972Z,636.00
2024-03-03T08:49:41.971Z,638.00
2024-03-03T08:50:41.983Z,638.00
2024-03-03T08:51:42.085Z,637.00
2024-03-03T08:52:41.997Z,635.00
2024-03-03T08:53:42.018Z,635.00
2024-03-03T08:54:42.058Z,633.00
2024-03-03T08:55:42.032Z,631.00
2024-03-03T08:56:42.017Z,629.00
2024-03-03T08:57:42.032Z,629.00
2024-03-03T08:58:42.029Z,629.00
2024-03-03T08:59:42.153Z,624.00
2024-03-03T09:00:42.120Z,624.00
2024-03-03T09:01:42.092Z,626.00
2024-03-03T09:02:42.037Z,626.00
2024-03-03T09:03:42.053Z,626.00
2024-03-03T09:04:42.075Z,626.00
2024-03-03T09:05:42.009Z,627.00
2024-03-03T09:06:42.094Z,627.00
2024-03-03T09:07:42.022Z,627.00
2024-03-03T09:08:42.019Z,626.00
2024-03-03T09:09:44.211Z,627.00
2024-03-03T09:10:42.071Z,627.00
2024-03-03T09:11:42.030Z,627.00
2024-03-03T09:12:42.066Z,626.00
2024-03-03T09:13:42.014Z,626.00
2024-03-03T09:14:42.002Z,625.00
2024-03-03T09:15:42.033Z,624.00
2024-03-03T09:16:41.980Z,624.00
2024-03-03T09:17:41.977Z,622.00
2024-03-03T09:18:42.007Z,619.00
2024-03-03T09:19:41.950Z,618.00
2024-03-03T09:20:41.954Z,621.00
2024-03-03T09:21:42.030Z,619.00
2024-03-03T09:22:41.975Z,617.00
2024-03-03T09:23:41.917Z,618.00
2024-03-03T09:24:41.935Z,617.00
2024-03-03T09:25:44.086Z,615.00
2024-03-03T09:26:41.895Z,615.00
2024-03-03T09:27:41.977Z,615.00
2024-03-03T09:28:41.918Z,613.00
2024-03-03T09:29:41.869Z,612.00
2024-03-03T09:30:41.915Z,613.00
2024-03-03T09:31:41.857Z,609.00
2024-03-03T09:32:41.890Z,611.00
2024-03-03T09:33:41.962Z,610.00
2024-03-03T09:34:41.850Z,609.00
2024-03-03T09:35:41.827Z,606.00
2024-03-03T09:36:41.835Z,607.00
2024-03-03T09:37:41.805Z,607.00
2024-03-03T09:38:41.814Z,609.00
2024-03-03T09:39:41.870Z,608.00
2024-03-03T09:40:41.809Z,609.00
2024-03-03T09:41:41.793Z,610.00
2024-03-03T09:42:41.827Z,611.00
2024-03-03T09:43:41.789Z,609.00
2024-03-03T09:44:41.786Z,606.00
2024-03-03T09:45:41.885Z,607.00
2024-03-03T09:46:41.996Z,610.00
2024-03-03T09:47:41.793Z,610.00
2024-03-03T09:48:41.849Z,606.00
2024-03-03T09:49:41.750Z,605.00
2024-03-03T09:50:41.737Z,603.00
2024-03-03T09:51:41.858Z,603.00
2024-03-03T09:52:41.739Z,604.00
2024-03-03T09:53:43.077Z,605.00
2024-03-03T09:54:41.912Z,605.00
2024-03-03T09:55:41.739Z,605.00
2024-03-03T09:56:43.783Z,609.00
2024-03-03T09:57:41.746Z,611.00
2024-03-03T09:58:41.773Z,609.00
2024-03-03T09:59:41.752Z,606.00
2024-03-03T10:00:41.771Z,604.00
2024-03-03T10:01:41.828Z,605.00
2024-03-03T10:02:41.737Z,603.00
2024-03-03T10:03:41.748Z,602.00
2024-03-03T10:04:41.872Z,604.00
2024-03-03T10:05:41.725Z,602.00
2024-03-03T10:06:41.772Z,597.00
2024-03-03T10:07:41.729Z,593.00
2024-03-03T10:08:41.727Z,592.00
2024-03-03T10:09:41.853Z,592.00
2024-03-03T10:10:43.054Z,594.00
2024-03-03T10:11:41.760Z,594.00
2024-03-03T10:12:41.717Z,595.00
2024-03-03T10:13:41.708Z,596.00
2024-03-03T10:14:41.697Z,598.00
2024-03-03T10:15:41.701Z,598.00
2024-03-03T10:16:41.709Z,595.00
2024-03-03T10:17:41.708Z,597.00
2024-03-03T10:18:41.782Z,596.00
2024-03-03T10:19:41.762Z,597.00
2024-03-03T10:20:41.806Z,593.00
2024-03-03T10:21:41.839Z,592.00
2024-03-03T10:22:41.856Z,593.00
2024-03-03T10:23:41.893Z,594.00
2024-03-03T10:24:41.954Z,595.00
2024-03-03T10:25:41.998Z,592.00
2024-03-03T10:26:42.050Z,589.00
2024-03-03T10:27:42.168Z,586.00
2024-03-03T10:28:42.126Z,584.00
2024-03-03T10:29:42.165Z,585.00
2024-03-03T10:30:42.373Z,586.00
2024-03-03T10:31:42.265Z,585.00
2024-03-03T10:32:42.353Z,580.00
2024-03-03T10:33:42.428Z,579.00
2024-03-03T10:34:42.420Z,579.00
2024-03-03T10:35:42.485Z,580.00
2024-03-03T10:36:42.673Z,584.00
2024-03-03T10:37:42.588Z,587.00
2024-03-03T10:38:42.663Z,586.00
2024-03-03T10:39:42.693Z,587.00
2024-03-03T10:40:42.772Z,584.00
2024-03-03T10:41:42.804Z,582.00
2024-03-03T10:42:42.863Z,581.00
2024-03-03T10:43:42.847Z,578.00
2024-03-03T10:44:42.837Z,579.00
2024-03-03T10:45:42.850Z,578.00
2024-03-03T10:46:42.824Z,578.00
2024-03-03T10:47:42.830Z,577.00
2024-03-03T10:48:42.869Z,575.00
2024-03-03T10:49:42.815Z,576.00
2024-03-03T10:50:42.916Z,577.00
2024-03-03T10:51:42.870Z,576.00
2024-03-03T10:52:42.813Z,576.00
2024-03-03T10:53:42.823Z,575.00
2024-03-03T10:54:42.913Z,575.00
2024-03-03T10:55:42.823Z,575.00
2024-03-03T10:56:42.834Z,573.00
2024-03-03T10:57:42.928Z,573.00
2024-03-03T10:58:42.828Z,572.00
2024-03-03T10:59:42.828Z,575.00
2024-03-03T11:00:42.835Z,572.00
2024-03-03T11:01:42.873Z,572.00
2024-03-03T11:02:42.841Z,575.00
2024-03-03T11:03:42.901Z,575.00
2024-03-03T11:04:42.851Z,572.00
2024-03-03T11:05:42.851Z,571.00
2024-03-03T11:06:42.844Z,572.00
2024-03-03T11:07:42.835Z,573.00
2024-03-03T11:08:42.820Z,572.00
2024-03-03T11:09:42.863Z,573.00
2024-03-03T11:10:42.805Z,576.00
2024-03-03T11:11:42.826Z,573.00
2024-03-03T11:12:42.815Z,568.00
2024-03-03T11:13:42.797Z,564.00
2024-03-03T11:14:42.789Z,564.00
2024-03-03T11:15:42.860Z,564.00
2024-03-03T11:16:42.793Z,565.00
2024-03-03T11:17:42.907Z,567.00
2024-03-03T11:18:42.924Z,568.00
2024-03-03T11:19:42.931Z,568.00
2024-03-03T11:20:42.992Z,568.00
2024-03-03T11:21:43.085Z,565.00
2024-03-03T11:22:43.182Z,565.00
2024-03-03T11:23:43.092Z,565.00
2024-03-03T11:24:43.177Z,567.00
2024-03-03T11:25:43.095Z,567.00
2024-03-03T11:26:43.074Z,567.00
2024-03-03T11:27:43.123Z,565.00
2024-03-03T11:28:43.102Z,564.00
2024-03-03T11:29:43.100Z,564.00
2024-03-03T11:30:43.141Z,564.00
2024-03-03T11:31:43.102Z,564.00
2024-03-03T11:32:43.112Z,564.00
2024-03-03T11:33:43.171Z,564.00
2024-03-03T11:34:43.109Z,567.00
2024-03-03T11:35:43.124Z,566.00
2024-03-03T11:36:43.127Z,568.00
2024-03-03T11:37:43.086Z,568.00
2024-03-03T11:38:43.080Z,566.00
2024-03-03T11:39:43.181Z,565.00
2024-03-03T11:40:43.218Z,564.00
2024-03-03T11:41:43.158Z,565.00
2024-03-03T11:42:43.239Z,566.00
2024-03-03T11:43:43.273Z,565.00
2024-03-03T11:44:43.321Z,566.00
2024-03-03T11:45:43.496Z,563.00
2024-03-03T11:46:43.407Z,564.00
2024-03-03T11:47:43.475Z,564.00
2024-03-03T11:48:43.510Z,565.00
2024-03-03T11:49:43.542Z,562.00
2024-03-03T11:50:43.565Z,561.00
2024-03-03T11:51:43.622Z,558.00
2024-03-03T11:52:43.707Z,558.00
2024-03-03T11:53:43.669Z,558.00
2024-03-03T11:54:43.694Z,559.00
2024-03-03T11:55:43.648Z,559.00
2024-03-03T11:56:43.663Z,555.00
2024-03-03T11:57:43.674Z,557.00
2024-03-03T11:58:43.673Z,554.00
2024-03-03T11:59:43.660Z,554.00
2024-03-03T12:00:43.754Z,555.00
2024-03-03T12:01:43.697Z,555.00
2024-03-03T12:02:43.672Z,555.00
2024-03-03T12:03:43.768Z,555.00
2024-03-03T12:04:43.764Z,556.00
2024-03-03T12:05:43.794Z,556.00
2024-03-03T12:06:43.871Z,552.00
2024-03-03T12:07:43.853Z,547.00
2024-03-03T12:08:43.859Z,547.00
2024-03-03T12:09:43.901Z,547.00
2024-03-03T12:10:43.919Z,550.00
2024-03-03T12:11:43.914Z,550.00
2024-03-03T12:12:43.975Z,549.00
2024-03-03T12:13:44.048Z,549.00
2024-03-03T12:14:44.073Z,551.00
2024-03-03T12:15:44.189Z,552.00
2024-03-03T12:16:44.227Z,553.00
2024-03-03T12:17:44.397Z,551.00
2024-03-03T12:18:44.285Z,551.00
2024-03-03T12:19:44.310Z,550.00
2024-03-03T12:20:44.261Z,550.00
2024-03-03T12:21:44.332Z,551.00
2024-03-03T12:22:44.270Z,548.00
2024-03-03T12:23:44.286Z,545.00
2024-03-03T12:24:44.345Z,547.00